createdAt,value
2018-12-03T00:00:16.425Z,9.89
2018-12-03T00:01:16.468Z,9.89
2018-12-03T00:02:16.728Z,9.91
2018-12-03T00:03:16.987Z,9.86
2018-12-03T00:04:16.255Z,9.91
2018-12-03T00:05:16.518Z,9.86
2018-12-03T00:06:16.792Z,9.86
2018-12-03T00:07:17.061Z,9.89
2018-12-03T00:08:16.323Z,9.88
2018-12-03T00:09:16.587Z,9.84
2018-12-03T00:10:16.857Z,9.85
2018-12-03T00:11:16.906Z,9.76
2018-12-03T00:12:17.180Z,9.81
2018-12-03T00:13:16.444Z,9.82
2018-12-03T00:14:16.707Z,9.78
2018-12-03T00:15:16.982Z,9.78
2018-12-03T00:16:16.260Z,9.78
2018-12-03T00:17:16.535Z,9.76
2018-12-03T00:18:16.804Z,9.74
2018-12-03T00:19:17.068Z,9.72
2018-12-03T00:20:16.334Z,9.74
2018-12-03T00:21:16.386Z,9.76
2018-12-03T00:22:16.652Z,9.81
2018-12-03T00:23:16.930Z,9.74
2018-12-03T00:24:17.222Z,9.76
2018-12-03T00:25:16.495Z,9.78
2018-12-03T00:26:16.770Z,9.76
2018-12-03T00:27:17.031Z,9.76
2018-12-03T00:28:16.291Z,9.75
2018-12-03T00:29:16.565Z,9.78
2018-12-03T00:30:16.839Z,9.74
2018-12-03T00:31:16.904Z,9.68
2018-12-03T00:32:17.169Z,9.74
2018-12-03T00:33:16.436Z,9.75
2018-12-03T00:34:16.692Z,9.74
2018-12-03T00:35:16.954Z,9.66
2018-12-03T00:36:16.223Z,9.68
2018-12-03T00:37:16.494Z,9.75
2018-12-03T00:38:16.757Z,9.74
2018-12-03T00:39:17.033Z,9.74
2018-12-03T00:40:16.310Z,9.74
2018-12-03T00:41:16.343Z,9.82
2018-12-03T00:42:16.603Z,9.74
2018-12-03T00:43:16.867Z,9.75
2018-12-03T00:44:17.135Z,9.75
2018-12-03T00:45:16.404Z,9.71
2018-12-03T00:46:16.660Z,9.72
2018-12-03T00:47:16.924Z,9.72
2018-12-03T00:48:17.205Z,9.71
2018-12-03T00:49:16.467Z,9.74
2018-12-03T00:50:16.732Z,9.75
2018-12-03T00:51:16.781Z,9.75
2018-12-03T00:52:17.048Z,9.75
2018-12-03T00:53:16.315Z,9.74
2018-12-03T00:54:16.583Z,9.76
2018-12-03T00:55:16.859Z,9.78
2018-12-03T00:56:17.112Z,9.78
2018-12-03T00:57:16.376Z,9.78
2018-12-03T00:58:16.640Z,9.84
2018-12-03T00:59:16.898Z,9.84
2018-12-03T01:00:17.170Z,9.88
2018-12-03T01:01:16.226Z,9.88
2018-12-03T01:02:16.486Z,9.85
2018-12-03T01:03:16.941Z,9.86
2018-12-03T01:04:16.213Z,9.89
2018-12-03T01:05:16.474Z,9.88
2018-12-03T01:06:16.744Z,9.88
2018-12-03T01:07:17.006Z,9.93
2018-12-03T01:08:16.263Z,9.91
2018-12-03T01:09:16.529Z,9.96
2018-12-03T01:10:16.794Z,10.06
2018-12-03T01:11:16.847Z,10.05
2018-12-03T01:12:17.119Z,10.14
2018-12-03T01:13:16.380Z,10.19
2018-12-03T01:14:16.646Z,10.30
2018-12-03T01:15:16.930Z,10.29
2018-12-03T01:16:17.198Z,10.27
2018-12-03T01:17:16.476Z,10.23
2018-12-03T01:18:16.735Z,10.30
2018-12-03T01:19:17.002Z,10.33
2018-12-03T01:20:16.272Z,10.33
2018-12-03T01:21:16.336Z,10.39
2018-12-03T01:22:16.601Z,10.44
2018-12-03T01:23:16.867Z,10.43
2018-12-03T01:24:17.134Z,10.43
2018-12-03T01:25:16.399Z,10.45
2018-12-03T01:26:16.665Z,10.48
2018-12-03T01:27:16.941Z,10.50
2018-12-03T01:28:17.204Z,10.45
2018-12-03T01:29:16.467Z,10.48
2018-12-03T01:30:16.745Z,10.54
2018-12-03T01:31:16.796Z,10.54
2018-12-03T01:32:17.062Z,10.54
2018-12-03T01:33:16.332Z,10.52
2018-12-03T01:34:16.604Z,10.47
2018-12-03T01:35:16.885Z,10.48
2018-12-03T01:36:17.154Z,10.54
2018-12-03T01:37:16.422Z,10.54
2018-12-03T01:38:16.689Z,10.50
2018-12-03T01:39:16.964Z,10.43
2018-12-03T01:40:16.238Z,10.41
2018-12-03T01:41:16.285Z,10.43
2018-12-03T01:42:16.551Z,10.43
2018-12-03T01:43:16.808Z,10.45
2018-12-03T01:44:17.079Z,10.45
2018-12-03T01:45:16.342Z,10.45
2018-12-03T01:46:16.604Z,10.43
2018-12-03T01:47:16.871Z,10.47
2018-12-03T01:48:17.130Z,10.47
2018-12-03T01:49:16.394Z,10.43
2018-12-03T01:50:16.666Z,10.56
2018-12-03T01:51:16.718Z,10.48
2018-12-03T01:52:16.988Z,10.48
2018-12-03T01:53:16.250Z,10.47
2018-12-03T01:54:16.512Z,10.43
2018-12-03T01:55:16.784Z,10.41
2018-12-03T01:56:17.046Z,10.47
2018-12-03T01:57:16.308Z,10.48
2018-12-03T01:58:16.572Z,10.50
2018-12-03T01:59:16.831Z,10.47
2018-12-03T02:00:17.113Z,10.47
2018-12-03T02:01:17.300Z,10.44
2018-12-03T02:02:16.570Z,10.47
2018-12-03T02:03:16.831Z,10.51
2018-12-03T02:04:17.108Z,10.47
2018-12-03T02:05:16.369Z,10.43
2018-12-03T02:06:16.639Z,10.50
2018-12-03T02:07:16.915Z,10.50
2018-12-03T02:08:17.175Z,10.43
2018-12-03T02:09:16.439Z,10.43
2018-12-03T02:10:16.707Z,10.39
2018-12-03T02:11:16.760Z,10.48
2018-12-03T02:12:17.023Z,10.47
2018-12-03T02:13:16.287Z,10.43
2018-12-03T02:14:16.567Z,10.47
2018-12-03T02:15:16.830Z,10.43
2018-12-03T02:16:17.088Z,10.43
2018-12-03T02:17:16.623Z,10.44
2018-12-03T02:18:16.896Z,10.39
2018-12-03T02:19:17.166Z,10.44
2018-12-03T02:20:16.443Z,10.40
2018-12-03T02:21:16.499Z,10.43
2018-12-03T02:22:16.766Z,10.43
2018-12-03T02:23:17.050Z,10.41
2018-12-03T02:24:16.323Z,10.44
2018-12-03T02:25:16.594Z,10.40
2018-12-03T02:26:16.864Z,10.43
2018-12-03T02:27:17.117Z,10.40
2018-12-03T02:28:16.379Z,10.37
2018-12-03T02:29:16.636Z,10.40
2018-12-03T02:30:16.918Z,10.36
2018-12-03T02:31:16.974Z,10.37
2018-12-03T02:32:16.247Z,10.40
2018-12-03T02:33:16.508Z,10.36
2018-12-03T02:34:16.768Z,10.39
2018-12-03T02:35:17.045Z,10.48
2018-12-03T02:36:16.333Z,10.43
2018-12-03T02:37:16.612Z,10.43
2018-12-03T02:38:16.871Z,10.41
2018-12-03T02:39:17.156Z,10.54
2018-12-03T02:40:16.446Z,10.57
2018-12-03T02:41:16.475Z,10.51
2018-12-03T02:42:16.762Z,10.50
2018-12-03T02:43:17.030Z,10.47
2018-12-03T02:44:16.326Z,10.58
2018-12-03T02:45:16.593Z,10.56
2018-12-03T02:46:16.855Z,10.57
2018-12-03T02:47:17.120Z,10.54
2018-12-03T02:48:16.382Z,10.51
2018-12-03T02:49:16.644Z,10.61
2018-12-03T02:50:16.917Z,10.63
2018-12-03T02:51:16.977Z,10.60
2018-12-03T02:52:16.245Z,10.65
2018-12-03T02:53:16.510Z,10.67
2018-12-03T02:54:16.784Z,10.71
2018-12-03T02:55:17.060Z,10.71
2018-12-03T02:56:16.343Z,10.70
2018-12-03T02:57:16.611Z,10.72
2018-12-03T02:58:16.883Z,10.74
2018-12-03T02:59:17.156Z,10.77
2018-12-03T03:00:16.438Z,10.74
2018-12-03T03:01:16.483Z,10.74
2018-12-03T03:02:16.756Z,10.65
2018-12-03T03:03:17.047Z,10.64
2018-12-03T03:04:16.310Z,10.61
2018-12-03T03:05:16.580Z,10.64
2018-12-03T03:06:16.879Z,10.64
2018-12-03T03:07:17.141Z,10.58
2018-12-03T03:08:16.420Z,10.63
2018-12-03T03:09:16.687Z,10.56
2018-12-03T03:10:16.976Z,10.57
2018-12-03T03:11:17.017Z,10.61
2018-12-03T03:12:16.288Z,10.54
2018-12-03T03:13:16.556Z,10.51
2018-12-03T03:14:16.835Z,10.51
2018-12-03T03:15:17.107Z,10.54
2018-12-03T03:16:16.378Z,10.65
2018-12-03T03:17:16.666Z,10.61
2018-12-03T03:18:16.936Z,10.65
2018-12-03T03:19:16.209Z,10.60
2018-12-03T03:20:16.531Z,10.60
2018-12-03T03:21:16.587Z,10.60
2018-12-03T03:22:16.858Z,10.68
2018-12-03T03:23:17.125Z,10.68
2018-12-03T03:24:16.389Z,10.71
2018-12-03T03:25:16.676Z,10.71
2018-12-03T03:26:16.951Z,10.77
2018-12-03T03:27:16.224Z,10.72
2018-12-03T03:28:16.501Z,10.74
2018-12-03T03:29:16.777Z,10.72
2018-12-03T03:30:17.068Z,10.72
2018-12-03T03:31:17.100Z,10.71
2018-12-03T03:32:16.372Z,10.72
2018-12-03T03:33:16.656Z,10.63
2018-12-03T03:34:16.941Z,10.61
2018-12-03T03:35:16.207Z,10.67
2018-12-03T03:36:16.491Z,10.58
2018-12-03T03:37:16.762Z,10.63
2018-12-03T03:38:17.031Z,10.58
2018-12-03T03:39:16.287Z,10.64
2018-12-03T03:40:16.559Z,10.50
2018-12-03T03:41:16.634Z,10.52
2018-12-03T03:42:16.904Z,10.54
2018-12-03T03:43:17.178Z,10.54
2018-12-03T03:44:16.439Z,10.51
2018-12-03T03:45:16.705Z,10.45
2018-12-03T03:46:16.975Z,10.40
2018-12-03T03:47:16.278Z,10.39
2018-12-03T03:48:16.568Z,10.39
2018-12-03T03:49:16.831Z,10.36
2018-12-03T03:50:17.143Z,10.30
2018-12-03T03:51:17.154Z,10.36
2018-12-03T03:52:16.423Z,10.37
2018-12-03T03:53:16.683Z,10.33
2018-12-03T03:54:16.948Z,10.34
2018-12-03T03:55:16.220Z,10.39
2018-12-03T03:56:16.491Z,10.33
2018-12-03T03:57:16.274Z,10.30
2018-12-03T03:58:16.552Z,10.34
2018-12-03T03:59:16.819Z,10.31
2018-12-03T04:00:17.119Z,10.29
2018-12-03T04:01:17.122Z,10.27
2018-12-03T04:02:16.391Z,10.29
2018-12-03T04:03:16.667Z,10.30
2018-12-03T04:04:16.949Z,10.24
2018-12-03T04:05:16.240Z,10.20
2018-12-03T04:06:16.507Z,10.20
2018-12-03T04:07:16.773Z,10.19
2018-12-03T04:08:17.032Z,10.19
2018-12-03T04:09:16.296Z,10.31
2018-12-03T04:10:16.586Z,10.33
2018-12-03T04:11:16.604Z,10.27
2018-12-03T04:12:16.873Z,10.29
2018-12-03T04:13:17.153Z,10.27
2018-12-03T04:14:16.421Z,10.30
2018-12-03T04:15:16.689Z,10.27
2018-12-03T04:16:16.964Z,10.20
2018-12-03T04:17:16.243Z,10.19
2018-12-03T04:18:16.508Z,10.26
2018-12-03T04:19:16.783Z,10.20
2018-12-03T04:20:17.351Z,10.21
2018-12-03T04:21:17.099Z,10.29
2018-12-03T04:22:16.373Z,10.26
2018-12-03T04:23:16.647Z,10.24
2018-12-03T04:24:16.915Z,10.27
2018-12-03T04:25:17.188Z,10.29
2018-12-03T04:26:16.469Z,10.27
2018-12-03T04:27:16.741Z,10.23
2018-12-03T04:28:17.006Z,10.26
2018-12-03T04:29:16.272Z,10.24
2018-12-03T04:30:16.559Z,10.26
2018-12-03T04:31:16.622Z,10.20
2018-12-03T04:32:16.886Z,10.21
2018-12-03T04:33:17.156Z,10.26
2018-12-03T04:34:16.412Z,10.21
2018-12-03T04:35:16.684Z,10.23
2018-12-03T04:36:16.959Z,10.23
2018-12-03T04:37:16.212Z,10.21
2018-12-03T04:38:16.474Z,10.21
2018-12-03T04:39:16.747Z,10.19
2018-12-03T04:40:17.056Z,10.23
2018-12-03T04:41:17.404Z,10.30
2018-12-03T04:42:16.675Z,10.33
2018-12-03T04:43:16.941Z,10.27
2018-12-03T04:44:17.201Z,10.26
2018-12-03T04:45:16.468Z,10.34
2018-12-03T04:46:16.750Z,10.37
2018-12-03T04:47:17.002Z,10.43
2018-12-03T04:48:16.269Z,10.34
2018-12-03T04:49:16.539Z,10.31
2018-12-03T04:50:16.822Z,10.27
2018-12-03T04:51:16.859Z,10.27
2018-12-03T04:52:17.131Z,10.30
2018-12-03T04:53:16.393Z,10.31
2018-12-03T04:54:16.666Z,10.31
2018-12-03T04:55:16.939Z,10.29
2018-12-03T04:56:16.224Z,10.30
2018-12-03T04:57:16.486Z,10.34
2018-12-03T04:58:16.752Z,10.30
2018-12-03T04:59:17.025Z,10.26
2018-12-03T05:00:16.321Z,10.31
2018-12-03T05:01:16.355Z,10.24
2018-12-03T05:02:16.610Z,10.24
2018-12-03T05:03:16.875Z,10.24
2018-12-03T05:04:17.146Z,10.20
2018-12-03T05:05:16.427Z,10.19
2018-12-03T05:06:16.703Z,10.17
2018-12-03T05:07:16.963Z,10.26
2018-12-03T05:08:16.241Z,10.19
2018-12-03T05:09:16.544Z,10.21
2018-12-03T05:10:16.808Z,10.21
2018-12-03T05:11:16.872Z,10.23
2018-12-03T05:12:17.138Z,10.24
2018-12-03T05:13:16.398Z,10.24
2018-12-03T05:14:16.666Z,10.19
2018-12-03T05:15:16.953Z,10.21
2018-12-03T05:16:16.233Z,10.31
2018-12-03T05:17:16.505Z,10.29
2018-12-03T05:18:16.765Z,10.26
2018-12-03T05:19:17.035Z,10.31
2018-12-03T05:20:16.318Z,10.30
2018-12-03T05:21:16.362Z,10.30
2018-12-03T05:22:16.621Z,10.33
2018-12-03T05:23:16.887Z,10.33
2018-12-03T05:24:17.168Z,10.36
2018-12-03T05:25:19.064Z,10.36
2018-12-03T05:26:17.028Z,10.36
2018-12-03T05:27:16.287Z,10.33
2018-12-03T05:28:16.563Z,10.33
2018-12-03T05:29:16.837Z,10.30
2018-12-03T05:30:17.111Z,10.31
2018-12-03T05:31:17.464Z,10.37
2018-12-03T05:32:16.732Z,10.39
2018-12-03T05:33:17.005Z,10.40
2018-12-03T05:34:16.291Z,10.45
2018-12-03T05:35:16.567Z,10.44
2018-12-03T05:36:16.823Z,10.41
2018-12-03T05:37:17.085Z,10.43
2018-12-03T05:38:16.354Z,10.47
2018-12-03T05:39:16.619Z,10.45
2018-12-03T05:40:17.506Z,10.48
2018-12-03T05:41:16.233Z,10.50
2018-12-03T05:42:16.511Z,10.52
2018-12-03T05:43:16.763Z,10.51
2018-12-03T05:44:17.024Z,10.45
2018-12-03T05:45:16.295Z,10.41
2018-12-03T05:46:16.560Z,10.44
2018-12-03T05:47:16.839Z,10.33
2018-12-03T05:48:17.109Z,10.43
2018-12-03T05:49:16.389Z,10.43
2018-12-03T05:50:16.669Z,10.47
2018-12-03T05:51:16.721Z,10.51
2018-12-03T05:52:16.990Z,10.51
2018-12-03T05:53:16.255Z,10.45
2018-12-03T05:54:16.511Z,10.51
2018-12-03T05:55:16.784Z,10.52
2018-12-03T05:56:17.061Z,10.51
2018-12-03T05:57:16.324Z,10.56
2018-12-03T05:58:16.584Z,10.56
2018-12-03T05:59:16.850Z,10.65
2018-12-03T06:00:17.130Z,10.63
2018-12-03T06:01:17.171Z,10.64
2018-12-03T06:02:16.441Z,10.67
2018-12-03T06:03:16.705Z,10.65
2018-12-03T06:04:16.978Z,10.68
2018-12-03T06:05:16.252Z,10.67
2018-12-03T06:06:16.511Z,10.72
2018-12-03T06:07:16.780Z,10.71
2018-12-03T06:08:17.041Z,10.74
2018-12-03T06:09:16.300Z,10.68
2018-12-03T06:10:16.580Z,10.67
2018-12-03T06:11:16.612Z,10.74
2018-12-03T06:12:16.873Z,10.71
2018-12-03T06:13:17.142Z,10.74
2018-12-03T06:14:16.400Z,10.71
2018-12-03T06:15:16.664Z,10.72
2018-12-03T06:16:16.939Z,10.70
2018-12-03T06:17:17.204Z,10.74
2018-12-03T06:18:16.467Z,10.79
2018-12-03T06:19:16.735Z,10.78
2018-12-03T06:20:17.011Z,10.77
2018-12-03T06:21:17.067Z,10.71
2018-12-03T06:22:16.337Z,10.70
2018-12-03T06:23:16.635Z,10.72
2018-12-03T06:24:16.891Z,10.68
2018-12-03T06:25:16.386Z,10.72
2018-12-03T06:26:16.663Z,10.71
2018-12-03T06:27:16.943Z,10.74
2018-12-03T06:28:16.207Z,10.67
2018-12-03T06:29:16.479Z,10.68
2018-12-03T06:30:16.746Z,10.67
2018-12-03T06:31:16.818Z,10.63
2018-12-03T06:32:17.088Z,10.64
2018-12-03T06:33:16.351Z,10.63
2018-12-03T06:34:16.613Z,10.61
2018-12-03T06:35:16.902Z,10.67
2018-12-03T06:36:17.204Z,10.65
2018-12-03T06:37:16.466Z,10.70
2018-12-03T06:38:16.721Z,10.61
2018-12-03T06:39:16.980Z,10.70
2018-12-03T06:40:16.267Z,10.65
2018-12-03T06:41:16.308Z,10.77
2018-12-03T06:42:16.581Z,10.82
2018-12-03T06:43:16.847Z,10.82
2018-12-03T06:44:17.117Z,10.84
2018-12-03T06:45:16.381Z,10.85
2018-12-03T06:46:16.642Z,10.84
2018-12-03T06:47:16.904Z,10.84
2018-12-03T06:48:17.161Z,10.87
2018-12-03T06:49:16.424Z,10.84
2018-12-03T06:50:16.711Z,10.84
2018-12-03T06:51:16.756Z,10.82
2018-12-03T06:52:17.034Z,10.82
2018-12-03T06:53:16.502Z,10.79
2018-12-03T06:54:16.765Z,10.82
2018-12-03T06:55:17.054Z,10.85
2018-12-03T06:56:16.325Z,10.81
2018-12-03T06:57:16.585Z,10.85
2018-12-03T06:58:16.859Z,10.85
2018-12-03T06:59:17.124Z,10.77
2018-12-03T07:00:16.392Z,10.74
2018-12-03T07:01:16.464Z,10.75
2018-12-03T07:02:16.729Z,10.75
2018-12-03T07:03:16.986Z,10.78
2018-12-03T07:04:16.255Z,10.78
2018-12-03T07:05:16.520Z,10.88
2018-12-03T07:06:16.788Z,10.93
2018-12-03T07:07:17.062Z,10.94
2018-12-03T07:08:16.332Z,10.96
2018-12-03T07:09:16.597Z,10.95
2018-12-03T07:10:16.873Z,10.92
2018-12-03T07:11:16.937Z,10.92
2018-12-03T07:12:17.207Z,10.90
2018-12-03T07:13:16.479Z,10.96
2018-12-03T07:14:16.755Z,11.07
2018-12-03T07:15:17.041Z,11.04
2018-12-03T07:16:16.300Z,11.03
2018-12-03T07:17:16.588Z,10.98
2018-12-03T07:18:16.856Z,10.99
2018-12-03T07:19:17.120Z,10.99
2018-12-03T07:20:16.422Z,10.96
2018-12-03T07:21:16.416Z,10.98
2018-12-03T07:22:16.672Z,10.99
2018-12-03T07:23:16.946Z,11.00
2018-12-03T07:24:16.215Z,11.02
2018-12-03T07:25:16.487Z,10.99
2018-12-03T07:26:16.742Z,10.99
2018-12-03T07:27:17.009Z,11.00
2018-12-03T07:28:16.285Z,11.00
2018-12-03T07:29:16.549Z,10.99
2018-12-03T07:30:16.847Z,11.04
2018-12-03T07:31:16.881Z,11.03
2018-12-03T07:32:17.156Z,10.99
2018-12-03T07:33:16.429Z,10.96
2018-12-03T07:34:16.703Z,10.92
2018-12-03T07:35:16.968Z,10.88
2018-12-03T07:36:16.232Z,10.92
2018-12-03T07:37:16.503Z,10.90
2018-12-03T07:38:16.772Z,10.89
2018-12-03T07:39:17.032Z,10.90
2018-12-03T07:40:16.301Z,10.82
2018-12-03T07:41:16.348Z,10.83
2018-12-03T07:42:16.616Z,10.87
2018-12-03T07:43:16.877Z,10.92
2018-12-03T07:44:17.162Z,10.91
2018-12-03T07:45:16.434Z,10.91
2018-12-03T07:46:16.703Z,10.89
2018-12-03T07:47:16.977Z,10.90
2018-12-03T07:48:16.237Z,10.90
2018-12-03T07:49:16.510Z,10.95
2018-12-03T07:50:16.777Z,10.92
2018-12-03T07:51:16.848Z,10.90
2018-12-03T07:52:17.117Z,10.93
2018-12-03T07:53:16.382Z,10.92
2018-12-03T07:54:16.643Z,10.95
2018-12-03T07:55:16.928Z,10.89
2018-12-03T07:56:17.196Z,10.88
2018-12-03T07:57:16.467Z,10.91
2018-12-03T07:58:16.737Z,10.91
2018-12-03T07:59:17.011Z,10.95
2018-12-03T08:00:16.300Z,10.96
2018-12-03T08:01:16.364Z,11.02
2018-12-03T08:02:16.628Z,10.94
2018-12-03T08:03:16.882Z,10.94
2018-12-03T08:04:17.157Z,10.94
2018-12-03T08:05:16.416Z,10.89
2018-12-03T08:06:16.697Z,10.91
2018-12-03T08:07:16.973Z,10.89
2018-12-03T08:08:16.246Z,10.88
2018-12-03T08:09:16.518Z,10.95
2018-12-03T08:10:16.798Z,10.92
2018-12-03T08:11:16.833Z,10.89
2018-12-03T08:12:17.102Z,10.88
2018-12-03T08:13:16.364Z,10.84
2018-12-03T08:14:16.631Z,10.82
2018-12-03T08:15:16.915Z,10.77
2018-12-03T08:16:17.210Z,10.75
2018-12-03T08:17:16.480Z,10.75
2018-12-03T08:18:16.742Z,10.68
2018-12-03T08:19:17.004Z,10.68
2018-12-03T08:20:16.278Z,10.67
2018-12-03T08:21:16.353Z,10.74
2018-12-03T08:22:16.617Z,10.71
2018-12-03T08:23:16.882Z,10.70
2018-12-03T08:24:17.163Z,10.70
2018-12-03T08:25:16.436Z,10.72
2018-12-03T08:26:16.696Z,10.72
2018-12-03T08:27:16.965Z,10.72
2018-12-03T08:28:16.229Z,10.71
2018-12-03T08:29:16.498Z,10.74
2018-12-03T08:30:16.776Z,10.67
2018-12-03T08:31:16.829Z,10.68
2018-12-03T08:32:17.103Z,10.68
2018-12-03T08:33:16.368Z,10.71
2018-12-03T08:34:16.635Z,10.65
2018-12-03T08:35:16.896Z,10.67
2018-12-03T08:36:17.169Z,10.70
2018-12-03T08:37:16.440Z,10.70
2018-12-03T08:38:16.702Z,10.72
2018-12-03T08:39:16.964Z,10.67
2018-12-03T08:40:16.225Z,10.67
2018-12-03T08:41:16.294Z,10.68
2018-12-03T08:42:16.576Z,10.77
2018-12-03T08:43:16.848Z,10.81
2018-12-03T08:44:17.117Z,10.84
2018-12-03T08:45:16.395Z,10.84
2018-12-03T08:46:16.666Z,10.85
2018-12-03T08:47:16.935Z,10.87
2018-12-03T08:48:17.196Z,10.87
2018-12-03T08:49:16.684Z,10.92
2018-12-03T08:50:16.995Z,10.91
2018-12-03T08:51:17.030Z,10.89
2018-12-03T08:52:16.297Z,10.88
2018-12-03T08:53:16.562Z,10.88
2018-12-03T08:54:16.828Z,10.85
2018-12-03T08:55:17.100Z,10.85
2018-12-03T08:56:16.393Z,10.84
2018-12-03T08:57:16.653Z,10.82
2018-12-03T08:58:16.911Z,10.82
2018-12-03T08:59:17.169Z,10.81
2018-12-03T09:00:16.442Z,10.79
2018-12-03T09:01:16.510Z,10.78
2018-12-03T09:02:16.770Z,10.78
2018-12-03T09:03:17.043Z,10.78
2018-12-03T09:04:16.309Z,10.77
2018-12-03T09:05:16.572Z,10.72
2018-12-03T09:06:16.830Z,10.74
2018-12-03T09:07:17.100Z,10.68
2018-12-03T09:08:16.359Z,10.67
2018-12-03T09:09:16.631Z,10.64
2018-12-03T09:10:16.898Z,10.64
2018-12-03T09:11:16.954Z,10.63
2018-12-03T09:12:16.235Z,10.61
2018-12-03T09:13:16.789Z,10.60
2018-12-03T09:14:17.056Z,10.60
2018-12-03T09:15:16.347Z,10.57
2018-12-03T09:16:16.612Z,10.56
2018-12-03T09:17:16.878Z,10.52
2018-12-03T09:18:17.161Z,10.47
2018-12-03T09:19:16.469Z,10.51
2018-12-03T09:20:16.754Z,10.51
2018-12-03T09:21:16.797Z,10.48
2018-12-03T09:22:17.073Z,10.47
2018-12-03T09:23:16.341Z,10.50
2018-12-03T09:24:16.608Z,10.48
2018-12-03T09:25:16.876Z,10.48
2018-12-03T09:26:17.147Z,10.48
2018-12-03T09:27:16.417Z,10.52
2018-12-03T09:28:16.690Z,10.52
2018-12-03T09:29:16.949Z,10.52
2018-12-03T09:30:16.213Z,10.52
2018-12-03T09:31:16.265Z,10.54
2018-12-03T09:32:16.535Z,10.60
2018-12-03T09:33:16.796Z,10.64
2018-12-03T09:34:17.066Z,10.63
2018-12-03T09:35:16.330Z,10.60
2018-12-03T09:36:16.589Z,10.61
2018-12-03T09:37:16.854Z,10.61
2018-12-03T09:38:17.139Z,10.57
2018-12-03T09:39:16.405Z,10.61
2018-12-03T09:40:16.684Z,10.60
2018-12-03T09:41:16.725Z,10.61
2018-12-03T09:42:16.982Z,10.65
2018-12-03T09:43:16.252Z,10.67
2018-12-03T09:44:16.688Z,10.67
2018-12-03T09:45:16.958Z,10.70
2018-12-03T09:46:16.230Z,10.72
2018-12-03T09:47:16.498Z,10.74
2018-12-03T09:48:16.766Z,10.75
2018-12-03T09:49:17.048Z,10.77
2018-12-03T09:50:16.325Z,10.81
2018-12-03T09:51:16.373Z,10.84
2018-12-03T09:52:16.631Z,10.84
2018-12-03T09:53:16.906Z,10.85
2018-12-03T09:54:17.170Z,10.88
2018-12-03T09:55:16.428Z,10.95
2018-12-03T09:56:16.701Z,10.99
2018-12-03T09:57:16.970Z,11.05
2018-12-03T09:58:16.232Z,11.09
2018-12-03T09:59:16.516Z,11.16
2018-12-03T10:00:16.787Z,11.16
2018-12-03T10:01:16.844Z,11.16
2018-12-03T10:02:17.121Z,11.26
2018-12-03T10:03:16.387Z,11.27
2018-12-03T10:04:16.642Z,11.33
2018-12-03T10:05:16.918Z,11.37
2018-12-03T10:06:17.182Z,11.25
2018-12-03T10:07:16.453Z,11.27
2018-12-03T10:08:16.709Z,11.31
2018-12-03T10:09:16.979Z,11.29
2018-12-03T10:10:16.236Z,11.30
2018-12-03T10:11:16.311Z,11.31
2018-12-03T10:12:18.247Z,11.31
2018-12-03T10:13:16.627Z,11.31
2018-12-03T10:14:16.890Z,11.27
2018-12-03T10:15:17.166Z,11.29
2018-12-03T10:16:16.436Z,11.31
2018-12-03T10:17:16.701Z,11.31
2018-12-03T10:18:16.960Z,11.34
2018-12-03T10:19:16.225Z,11.37
2018-12-03T10:20:16.503Z,11.42
2018-12-03T10:21:16.550Z,11.43
2018-12-03T10:22:16.823Z,11.46
2018-12-03T10:23:17.096Z,11.51
2018-12-03T10:24:16.354Z,11.55
2018-12-03T10:25:16.633Z,11.55
2018-12-03T10:26:16.902Z,11.55
2018-12-03T10:27:17.162Z,11.54
2018-12-03T10:28:16.430Z,11.50
2018-12-03T10:29:16.695Z,11.51
2018-12-03T10:30:16.970Z,11.46
2018-12-03T10:31:17.020Z,11.44
2018-12-03T10:32:16.295Z,11.46
2018-12-03T10:33:16.565Z,11.46
2018-12-03T10:34:16.831Z,11.47
2018-12-03T10:35:17.104Z,11.47
2018-12-03T10:36:16.366Z,11.49
2018-12-03T10:37:16.630Z,11.49
2018-12-03T10:38:16.904Z,11.50
2018-12-03T10:39:17.181Z,11.49
2018-12-03T10:40:16.456Z,11.49
2018-12-03T10:41:16.502Z,11.49
2018-12-03T10:42:16.762Z,11.49
2018-12-03T10:43:17.018Z,11.50
2018-12-03T10:44:16.286Z,11.49
2018-12-03T10:45:16.553Z,11.47
2018-12-03T10:46:16.833Z,11.44
2018-12-03T10:47:17.094Z,11.46
2018-12-03T10:48:16.380Z,11.42
2018-12-03T10:49:16.653Z,11.43
2018-12-03T10:50:22.085Z,11.39
2018-12-03T10:51:16.974Z,11.39
2018-12-03T10:52:16.245Z,11.39
2018-12-03T10:53:16.524Z,11.39
2018-12-03T10:54:16.797Z,11.36
2018-12-03T10:55:17.065Z,11.36
2018-12-03T10:56:17.312Z,11.34
2018-12-03T10:57:16.637Z,11.34
2018-12-03T10:58:16.911Z,11.36
2018-12-03T10:59:17.177Z,11.33
2018-12-03T11:00:16.451Z,11.34
2018-12-03T11:01:16.508Z,11.33
2018-12-03T11:02:16.766Z,11.30
2018-12-03T11:03:17.038Z,11.33
2018-12-03T11:04:16.308Z,11.30
2018-12-03T11:05:16.590Z,11.30
2018-12-03T11:06:16.853Z,11.30
2018-12-03T11:07:17.128Z,11.33
2018-12-03T11:08:16.400Z,11.29
2018-12-03T11:09:16.663Z,11.30
2018-12-03T11:10:16.929Z,11.31
2018-12-03T11:11:16.991Z,11.30
2018-12-03T11:12:16.257Z,11.30
2018-12-03T11:13:16.513Z,11.29
2018-12-03T11:14:16.775Z,11.30
2018-12-03T11:15:17.053Z,11.27
2018-12-03T11:16:16.325Z,11.29
2018-12-03T11:17:16.585Z,11.29
2018-12-03T11:18:16.842Z,11.33
2018-12-03T11:19:17.114Z,11.31
2018-12-03T11:20:16.392Z,11.33
2018-12-03T11:21:16.457Z,11.31
2018-12-03T11:22:16.717Z,11.33
2018-12-03T11:23:16.984Z,11.34
2018-12-03T11:24:16.514Z,11.37
2018-12-03T11:25:16.781Z,11.34
2018-12-03T11:26:17.054Z,11.34
2018-12-03T11:27:16.326Z,11.40
2018-12-03T11:28:16.586Z,11.42
2018-12-03T11:29:16.908Z,11.44
2018-12-03T11:30:17.182Z,11.44
2018-12-03T11:31:16.235Z,11.47
2018-12-03T11:32:16.498Z,11.47
2018-12-03T11:33:16.763Z,11.46
2018-12-03T11:34:17.032Z,11.50
2018-12-03T11:35:16.303Z,11.53
2018-12-03T11:36:16.576Z,11.55
2018-12-03T11:37:16.849Z,11.58
2018-12-03T11:38:17.141Z,11.58
2018-12-03T11:39:16.407Z,11.63
2018-12-03T11:40:16.689Z,11.64
2018-12-03T11:41:16.727Z,11.68
2018-12-03T11:42:16.986Z,11.67
2018-12-03T11:43:16.255Z,11.67
2018-12-03T11:44:16.524Z,11.71
2018-12-03T11:45:16.799Z,11.71
2018-12-03T11:46:17.064Z,11.72
2018-12-03T11:47:16.325Z,11.68
2018-12-03T11:48:16.594Z,11.72
2018-12-03T11:49:16.863Z,11.70
2018-12-03T11:50:17.141Z,11.71
2018-12-03T11:51:17.195Z,11.72
2018-12-03T11:52:16.457Z,11.72
2018-12-03T11:53:16.729Z,11.68
2018-12-03T11:54:16.994Z,11.71
2018-12-03T11:55:16.260Z,11.75
2018-12-03T11:56:16.536Z,11.72
2018-12-03T11:57:16.792Z,11.71
2018-12-03T11:58:17.068Z,11.71
2018-12-03T11:59:16.336Z,11.70
2018-12-03T12:00:16.603Z,11.70
2018-12-03T12:01:16.679Z,11.70
2018-12-03T12:02:16.956Z,11.70
2018-12-03T12:03:16.215Z,11.67
2018-12-03T12:04:16.530Z,11.65
2018-12-03T12:05:16.800Z,11.68
2018-12-03T12:06:17.074Z,11.71
2018-12-03T12:07:16.346Z,11.71
2018-12-03T12:08:16.619Z,11.71
2018-12-03T12:09:20.943Z,11.71
2018-12-03T12:10:16.433Z,11.65
2018-12-03T12:11:16.477Z,11.63
2018-12-03T12:12:16.752Z,11.63
2018-12-03T12:13:17.031Z,11.61
2018-12-03T12:14:16.293Z,11.67
2018-12-03T12:15:16.565Z,11.65
2018-12-03T12:16:16.833Z,11.64
2018-12-03T12:17:17.111Z,11.65
2018-12-03T12:18:16.379Z,11.67
2018-12-03T12:19:16.704Z,11.68
2018-12-03T12:20:16.990Z,11.67
2018-12-03T12:21:17.025Z,11.70
2018-12-03T12:22:16.307Z,11.74
2018-12-03T12:23:16.574Z,11.70
2018-12-03T12:24:16.846Z,11.68
2018-12-03T12:25:17.373Z,11.71
2018-12-03T12:26:16.628Z,11.71
2018-12-03T12:27:16.896Z,11.68
2018-12-03T12:28:17.161Z,11.71
2018-12-03T12:29:16.427Z,11.72
2018-12-03T12:30:16.700Z,11.75
2018-12-03T12:31:16.759Z,11.70
2018-12-03T12:32:17.035Z,11.64
2018-12-03T12:33:16.295Z,11.63
2018-12-03T12:34:16.563Z,11.63
2018-12-03T12:35:16.835Z,11.64
2018-12-03T12:36:17.101Z,11.61
2018-12-03T12:37:16.363Z,11.54
2018-12-03T12:38:16.628Z,11.58
2018-12-03T12:39:16.892Z,11.60
2018-12-03T12:40:16.367Z,11.55
2018-12-03T12:41:16.422Z,11.51
2018-12-03T12:42:16.693Z,11.51
2018-12-03T12:43:16.957Z,11.49
2018-12-03T12:44:16.231Z,11.50
2018-12-03T12:45:16.492Z,11.44
2018-12-03T12:46:16.755Z,11.46
2018-12-03T12:47:17.136Z,11.43
2018-12-03T12:48:16.399Z,11.43
2018-12-03T12:49:16.669Z,11.44
2018-12-03T12:50:16.944Z,11.39
2018-12-03T12:51:17.012Z,11.40
2018-12-03T12:52:16.271Z,11.44
2018-12-03T12:53:16.527Z,11.47
2018-12-03T12:54:16.797Z,11.47